Shirley, NY

10:17 PM EDT on April 27, 2017 (GMT -0400)
Brookhaven | | Change Station
Active Advisory: Coastal Flood Statement Active Notice: Coastal Flood Statement

Elev 82 ft 40.82 °N, 72.86 °W | Updated 21 minutes ago

Overcast
Overcast
57 °F
Feels Like 57 °F
N
7
Wind Variable Wind from Variable

Today
High -- | Low -- °F
--% Chance of Precip.
Yesterday
High -- | Low -- °F
Precip. -- in
Pressure 29.93 in
Visibility 7.0 miles
Clouds Mostly Cloudy 400 ft
Overcast 800 ft
Dew Point 56 °F
Humidity 96%
Rainfall 0.00 in
Snow Depth Not available.
5:54 AM 7:43 PM
Waxing Crescent, 4% visible
METAR KHWV 280156Z AUTO VRB06KT 7SM BKN004 OVC008 14/13 A2993 RMK AO2 CIG 003V007 SLP135 T01390133 TSNO
Pressure 29.93 in
Visibility 7.0 miles
Clouds Mostly Cloudy 400 ft
Overcast 800 ft
Dew Point 56 °F
Humidity 96%
Rainfall 0.00 in
Snow Depth Not available.
5:54 AM 7:43 PM
Waxing Crescent, 4% visible
METAR KHWV 280156Z AUTO VRB06KT 7SM BKN004 OVC008 14/13 A2993 RMK AO2 CIG 003V007 SLP135 T01390133 TSNO

Get Your Daily Forecast Email!

Thanks for signing up!

Be on the lookout for a verification email in your inbox.

You'll start receiving severe weather alerts in your inbox..

×

10-Day Weather Forecast

Almanac

Astronomy

Apr. 27, 2017 Rise Set
Actual Time
Civil Twilight
Nautical Twilight
Astronomical Twilight
Moon
Length of Visible Light
Length of Day
Tomorrow will be .
, % of the Moon is Illuminated

Today's Extremes

State Highs State Lows

Community

WunderPhotos

WunderBlog® & News

Nearby

Air Quality

  Air Quality AQ Index Pollutant
Not available.

Snow Depth

Station Depth Elevation

Earthquake Activity

City Distance Mag. Time & Date
Minimum magnitude displayed is 2.5.

Coastal Water Temperatures

Place Temperature

Stations

Nearby Weather Stations

Station Location Temp. Windchill Dew Point Humidity Wind Precip. Elev Updated Type
                   

Watches & Warnings

Coastal Flood Statement
Issued: 3:52 PM EDT Apr. 27, 2017 – National Weather Service

... Isolated minor coastal flooding near high tide tonight...

* locations... South Shore bays of southwest Suffolk County.

* Tidal departures... 1/2 to 1 ft above astronomical tides.

* Timing... isolated minor coastal flooding near high tide.

* Impacts... isolated minor coastal flooding of the most vulnerable
shoreroads and/or basements is possible. There is no
significant threat to life or property.